createdAt,value
2017-08-02T00:00:08.435Z,14.34
2017-08-02T00:01:08.737Z,14.3
2017-08-02T00:02:08.730Z,14.31
2017-08-02T00:03:08.728Z,14.29
2017-08-02T00:04:08.716Z,14.19
2017-08-02T00:05:08.729Z,14.09
2017-08-02T00:06:08.399Z,14.29
2017-08-02T00:07:08.408Z,14.02
2017-08-02T00:08:08.711Z,13.94
2017-08-02T00:09:08.702Z,13.93
2017-08-02T00:10:08.391Z,14.01
2017-08-02T00:11:08.686Z,14.01
2017-08-02T00:12:08.681Z,14.06
2017-08-02T00:13:08.726Z,14.13
2017-08-02T00:14:08.690Z,14.24
2017-08-02T00:15:08.674Z,14.23
2017-08-02T00:16:08.662Z,14.13
2017-08-02T00:17:08.351Z,14.05
2017-08-02T00:18:08.352Z,13.94
2017-08-02T00:19:08.642Z,14.01
2017-08-02T00:20:08.641Z,14.08
2017-08-02T00:21:08.646Z,13.9
2017-08-02T00:22:08.335Z,13.99
2017-08-02T00:23:08.627Z,13.98
2017-08-02T00:24:08.633Z,13.9
2017-08-02T00:25:08.607Z,13.98
2017-08-02T00:26:08.610Z,13.93
2017-08-02T00:27:08.610Z,13.96
2017-08-02T00:28:08.594Z,13.98
2017-08-02T00:29:08.290Z,13.9
2017-08-02T00:30:08.290Z,13.88
2017-08-02T00:31:08.585Z,13.84
2017-08-02T00:32:08.575Z,13.94
2017-08-02T00:33:08.588Z,13.93
2017-08-02T00:34:08.572Z,13.86
2017-08-02T00:35:08.563Z,13.69
2017-08-02T00:36:08.556Z,13.72
2017-08-02T00:37:08.550Z,13.76
2017-08-02T00:38:08.549Z,13.9
2017-08-02T00:39:08.549Z,14.05
2017-08-02T00:40:08.230Z,13.98
2017-08-02T00:41:08.533Z,13.94
2017-08-02T00:42:08.226Z,13.83
2017-08-02T00:43:08.523Z,13.79
2017-08-02T00:44:08.519Z,13.8
2017-08-02T00:45:08.520Z,13.81
2017-08-02T00:46:08.507Z,13.79
2017-08-02T00:47:08.498Z,13.86
2017-08-02T00:48:08.493Z,13.86
2017-08-02T00:49:08.496Z,13.72
2017-08-02T00:50:08.182Z,13.76
2017-08-02T00:51:08.483Z,13.69
2017-08-02T00:52:08.478Z,13.71
2017-08-02T00:53:08.458Z,13.69
2017-08-02T00:54:08.465Z,13.81
2017-08-02T00:55:08.456Z,13.9
2017-08-02T00:56:08.450Z,13.81
2017-08-02T00:57:08.439Z,13.84
2017-08-02T00:58:08.135Z,13.73
2017-08-02T00:59:08.443Z,13.72
2017-08-02T01:00:08.429Z,13.73
2017-08-02T01:01:08.422Z,13.69
2017-08-02T01:02:08.416Z,13.65
2017-08-02T01:03:08.406Z,13.62
2017-08-02T01:04:08.406Z,13.61
2017-08-02T01:05:08.411Z,13.53
2017-08-02T01:06:08.086Z,13.65
2017-08-02T01:07:08.397Z,13.68
2017-08-02T01:08:08.384Z,13.53
2017-08-02T01:09:08.085Z,13.59
2017-08-02T01:10:07.772Z,13.55
2017-08-02T01:11:08.361Z,13.54
2017-08-02T01:12:08.061Z,13.43
2017-08-02T01:13:08.354Z,13.54
2017-08-02T01:14:08.360Z,13.57
2017-08-02T01:15:08.346Z,13.62
2017-08-02T01:16:08.349Z,13.63
2017-08-02T01:17:08.021Z,13.57
2017-08-02T01:18:08.337Z,13.51
2017-08-02T01:19:08.330Z,13.57
2017-08-02T01:20:08.322Z,13.53
2017-08-02T01:21:08.015Z,13.54
2017-08-02T01:22:08.297Z,13.53
2017-08-02T01:23:07.997Z,13.5
2017-08-02T01:24:08.304Z,13.5
2017-08-02T01:25:08.283Z,13.55
2017-08-02T01:26:08.311Z,13.57
2017-08-02T01:27:08.268Z,13.59
2017-08-02T01:28:08.283Z,13.46
2017-08-02T01:29:08.264Z,13.43
2017-08-02T01:30:07.960Z,13.43
2017-08-02T01:31:08.264Z,13.53
2017-08-02T01:32:08.261Z,13.44
2017-08-02T01:33:08.246Z,13.5
2017-08-02T01:34:07.938Z,13.54
2017-08-02T01:35:08.243Z,13.54
2017-08-02T01:36:08.222Z,13.5
2017-08-02T01:37:08.225Z,13.31
2017-08-02T01:38:07.911Z,13.44
2017-08-02T01:39:08.220Z,13.46
2017-08-02T01:40:08.202Z,13.46
2017-08-02T01:41:08.194Z,13.46
2017-08-02T01:42:07.583Z,13.53
2017-08-02T01:43:08.195Z,13.36
2017-08-02T01:44:08.193Z,13.12
2017-08-02T01:45:08.166Z,13.1
2017-08-02T01:46:08.175Z,13.13
2017-08-02T01:47:07.868Z,13.27
2017-08-02T01:48:08.164Z,13.25
2017-08-02T01:49:08.152Z,13.35
2017-08-02T01:50:07.833Z,13.32
2017-08-02T01:51:07.527Z,13.21
2017-08-02T01:52:08.137Z,13.14
2017-08-02T01:53:08.133Z,13.12
2017-08-02T01:54:08.116Z,13.09
2017-08-02T01:55:08.112Z,13.21
2017-08-02T01:56:07.806Z,13.19
2017-08-02T01:57:08.101Z,13.1
2017-08-02T01:58:07.796Z,12.95
2017-08-02T01:59:08.093Z,12.85
2017-08-02T02:00:08.084Z,12.71
2017-08-02T02:01:07.781Z,12.67
2017-08-02T02:02:07.780Z,12.61
2017-08-02T02:03:07.770Z,12.73
2017-08-02T02:04:08.066Z,12.62
2017-08-02T02:05:07.752Z,12.66
2017-08-02T02:06:08.065Z,12.66
2017-08-02T02:07:08.047Z,12.76
2017-08-02T02:08:07.741Z,12.84
2017-08-02T02:09:08.031Z,12.89
2017-08-02T02:10:08.030Z,12.85
2017-08-02T02:11:07.715Z,12.92
2017-08-02T02:12:07.725Z,12.91
2017-08-02T02:13:08.016Z,12.91
2017-08-02T02:14:08.000Z,12.84
2017-08-02T02:15:07.687Z,12.98
2017-08-02T02:16:07.691Z,12.92
2017-08-02T02:17:07.977Z,12.84
2017-08-02T02:18:07.672Z,12.92
2017-08-02T02:19:07.976Z,12.91
2017-08-02T02:20:07.663Z,12.91
2017-08-02T02:21:07.961Z,12.49
2017-08-02T02:22:07.655Z,12.25
2017-08-02T02:23:07.949Z,12.11
2017-08-02T02:24:07.937Z,11.79
2017-08-02T02:25:07.929Z,11.67
2017-08-02T02:26:07.611Z,11.53
2017-08-02T02:27:07.907Z,11.33
2017-08-02T02:28:07.906Z,11.12
2017-08-02T02:29:07.617Z,11.13
2017-08-02T02:30:07.599Z,11.05
2017-08-02T02:31:07.881Z,11.05
2017-08-02T02:32:07.594Z,11.05
2017-08-02T02:33:07.868Z,10.93
2017-08-02T02:34:07.862Z,11.09
2017-08-02T02:35:07.855Z,11.56
2017-08-02T02:36:07.858Z,11.63
2017-08-02T02:37:07.845Z,11.64
2017-08-02T02:38:07.536Z,11.81
2017-08-02T02:39:07.826Z,11.94
2017-08-02T02:40:07.531Z,12.01
2017-08-02T02:41:07.814Z,12
2017-08-02T02:42:07.811Z,12.08
2017-08-02T02:43:07.498Z,12.04
2017-08-02T02:44:07.802Z,11.9
2017-08-02T02:45:07.490Z,11.66
2017-08-02T02:46:07.783Z,11.62
2017-08-02T02:47:07.481Z,11.59
2017-08-02T02:48:07.469Z,11.44
2017-08-02T02:49:07.762Z,11.28
2017-08-02T02:50:07.455Z,11.13
2017-08-02T02:51:07.743Z,10.98
2017-08-02T02:52:07.736Z,10.78
2017-08-02T02:53:07.431Z,10.66
2017-08-02T02:54:07.720Z,10.73
2017-08-02T02:55:07.716Z,10.83
2017-08-02T02:56:07.100Z,10.87
2017-08-02T02:57:07.705Z,10.88
2017-08-02T02:58:07.396Z,10.9
2017-08-02T02:59:07.387Z,10.83
2017-08-02T03:00:07.694Z,10.8
2017-08-02T03:01:07.674Z,10.65
2017-08-02T03:02:07.715Z,10.35
2017-08-02T03:03:07.667Z,10.22
2017-08-02T03:04:07.655Z,10.11
2017-08-02T03:05:07.658Z,10.18
2017-08-02T03:06:07.638Z,10.34
2017-08-02T03:07:07.648Z,10.38
2017-08-02T03:08:07.627Z,10.49
2017-08-02T03:09:07.619Z,10.63
2017-08-02T03:10:07.306Z,10.68
2017-08-02T03:11:07.616Z,10.65
2017-08-02T03:12:07.607Z,10.65
2017-08-02T03:13:07.596Z,10.84
2017-08-02T03:14:07.607Z,10.95
2017-08-02T03:15:07.573Z,11.12
2017-08-02T03:16:07.268Z,11.42
2017-08-02T03:17:07.574Z,11.57
2017-08-02T03:18:07.564Z,11.82
2017-08-02T03:19:07.550Z,12.03
2017-08-02T03:20:07.541Z,12.03
2017-08-02T03:21:07.530Z,12.04
2017-08-02T03:22:07.531Z,12.04
2017-08-02T03:23:07.516Z,12.08
2017-08-02T03:24:07.523Z,12.08
2017-08-02T03:25:07.207Z,12.16
2017-08-02T03:26:07.200Z,12.16
2017-08-02T03:27:07.503Z,12.18
2017-08-02T03:28:07.497Z,12.21
2017-08-02T03:29:07.491Z,12.21
2017-08-02T03:30:07.494Z,12.18
2017-08-02T03:31:07.464Z,12.18
2017-08-02T03:32:07.459Z,12.25
2017-08-02T03:33:07.464Z,12.37
2017-08-02T03:34:07.458Z,12.4
2017-08-02T03:35:07.469Z,12.63
2017-08-02T03:36:07.440Z,12.56
2017-08-02T03:37:07.435Z,12.66
2017-08-02T03:38:07.436Z,12.59
2017-08-02T03:39:07.428Z,12.61
2017-08-02T03:40:07.416Z,12.71
2017-08-02T03:41:07.102Z,12.69
2017-08-02T03:42:07.393Z,12.59
2017-08-02T03:43:07.086Z,12.7
2017-08-02T03:44:07.081Z,12.73
2017-08-02T03:45:07.382Z,12.69
2017-08-02T03:46:07.087Z,12.59
2017-08-02T03:47:07.366Z,12.56
2017-08-02T03:48:07.355Z,12.59
2017-08-02T03:49:07.358Z,12.55
2017-08-02T03:50:07.344Z,12.62
2017-08-02T03:51:07.346Z,12.59
2017-08-02T03:52:07.338Z,12.69
2017-08-02T03:53:07.322Z,12.67
2017-08-02T03:54:07.335Z,12.62
2017-08-02T03:55:07.006Z,12.71
2017-08-02T03:56:07.003Z,12.62
2017-08-02T03:57:07.305Z,12.61
2017-08-02T03:58:06.987Z,12.74
2017-08-02T03:59:07.290Z,12.79
2017-08-02T04:00:07.275Z,12.73
2017-08-02T04:01:07.264Z,12.79
2017-08-02T04:02:06.990Z,12.96
2017-08-02T04:03:07.262Z,13.03
2017-08-02T04:04:07.251Z,13.01
2017-08-02T04:05:07.243Z,12.94
2017-08-02T04:06:07.236Z,12.85
2017-08-02T04:07:06.937Z,12.95
2017-08-02T04:08:07.230Z,12.95
2017-08-02T04:09:07.212Z,12.81
2017-08-02T04:10:06.914Z,12.84
2017-08-02T04:11:07.200Z,12.88
2017-08-02T04:12:07.197Z,12.95
2017-08-02T04:13:07.198Z,12.88
2017-08-02T04:14:07.182Z,12.98
2017-08-02T04:15:07.180Z,12.99
2017-08-02T04:16:07.177Z,12.98
2017-08-02T04:17:07.160Z,12.88
2017-08-02T04:18:07.161Z,12.81
2017-08-02T04:19:07.154Z,12.74
2017-08-02T04:20:07.146Z,12.79
2017-08-02T04:21:07.138Z,12.7
2017-08-02T04:22:07.129Z,12.7
2017-08-02T04:23:06.828Z,12.69
2017-08-02T04:24:07.123Z,12.71
2017-08-02T04:25:07.107Z,12.71
2017-08-02T04:26:07.110Z,12.81
2017-08-02T04:27:07.102Z,12.76
2017-08-02T04:28:07.096Z,12.76
2017-08-02T04:29:07.097Z,12.73
2017-08-02T04:30:07.080Z,12.92
2017-08-02T04:31:07.085Z,12.95
2017-08-02T04:32:07.072Z,12.95
2017-08-02T04:33:07.059Z,13.03
2017-08-02T04:34:06.744Z,13.17
2017-08-02T04:35:07.046Z,12.96
2017-08-02T04:36:07.048Z,12.88
2017-08-02T04:37:07.031Z,12.89
2017-08-02T04:38:07.020Z,12.91
2017-08-02T04:39:07.016Z,12.84
2017-08-02T04:40:06.708Z,12.91
2017-08-02T04:41:07.010Z,12.89
2017-08-02T04:42:06.995Z,12.88
2017-08-02T04:43:06.993Z,12.94
2017-08-02T04:44:06.985Z,12.92
2017-08-02T04:45:07.011Z,12.95
2017-08-02T04:46:06.678Z,12.96
2017-08-02T04:47:06.978Z,12.99
2017-08-02T04:48:06.957Z,13.1
2017-08-02T04:49:06.965Z,13.17
2017-08-02T04:50:06.954Z,13.39
2017-08-02T04:51:06.646Z,13.57
2017-08-02T04:52:06.947Z,13.79
2017-08-02T04:53:06.628Z,13.75
2017-08-02T04:54:06.923Z,13.91
2017-08-02T04:55:06.914Z,13.88
2017-08-02T04:56:06.911Z,13.98
2017-08-02T04:57:06.906Z,14.04
2017-08-02T04:58:06.599Z,14.29
2017-08-02T04:59:06.906Z,14.53
2017-08-02T05:00:06.585Z,14.75
2017-08-02T05:01:06.911Z,14.93
2017-08-02T05:02:06.578Z,14.93
2017-08-02T05:03:06.564Z,14.97
2017-08-02T05:04:06.867Z,15.09
2017-08-02T05:05:06.871Z,14.8
2017-08-02T05:06:06.857Z,14.82
2017-08-02T05:07:06.853Z,14.95
2017-08-02T05:08:06.854Z,15.13
2017-08-02T05:09:06.838Z,15.16
2017-08-02T05:10:06.526Z,15.09
2017-08-02T05:11:06.822Z,15.07
2017-08-02T05:12:06.827Z,14.98
2017-08-02T05:13:06.805Z,14.91
2017-08-02T05:14:06.806Z,14.69
2017-08-02T05:15:06.507Z,14.71
2017-08-02T05:16:06.804Z,14.46
2017-08-02T05:17:06.486Z,14.23
2017-08-02T05:18:06.788Z,14.31
2017-08-02T05:19:06.784Z,14.48
2017-08-02T05:20:06.773Z,14.59
2017-08-02T05:21:06.766Z,14.9
2017-08-02T05:22:06.458Z,14.79
2017-08-02T05:23:06.462Z,15.18
2017-08-02T05:24:06.756Z,15.52
2017-08-02T05:25:06.442Z,15.92
2017-08-02T05:26:06.442Z,15.78
2017-08-02T05:27:06.430Z,15.19
2017-08-02T05:28:06.417Z,14.79
2017-08-02T05:29:06.414Z,14.26
2017-08-02T05:30:06.714Z,14.39
2017-08-02T05:31:06.412Z,14.74
2017-08-02T05:32:06.408Z,15.07
2017-08-02T05:33:06.712Z,15.2
2017-08-02T05:34:06.389Z,15.43
2017-08-02T05:35:06.690Z,15.91
2017-08-02T05:36:06.683Z,15.62
2017-08-02T05:37:06.376Z,15.4
2017-08-02T05:38:06.671Z,15.59
2017-08-02T05:39:06.679Z,15.62
2017-08-02T05:40:06.676Z,15.4
2017-08-02T05:41:06.684Z,15.16
2017-08-02T05:42:06.658Z,15.15
2017-08-02T05:43:06.653Z,15.58
2017-08-02T05:44:06.636Z,15.78
2017-08-02T05:45:06.639Z,15.8
2017-08-02T05:46:06.628Z,15.92
2017-08-02T05:47:06.328Z,16.3
2017-08-02T05:48:06.623Z,16.66
2017-08-02T05:49:06.645Z,16.1
2017-08-02T05:50:06.613Z,16.13
2017-08-02T05:51:06.606Z,15.98
2017-08-02T05:52:06.601Z,15.62
2017-08-02T05:53:06.615Z,15.78
2017-08-02T05:54:06.597Z,15.96
2017-08-02T05:55:06.587Z,15.62
2017-08-02T05:56:06.585Z,15.86
2017-08-02T05:57:06.580Z,15.76
2017-08-02T05:58:06.577Z,15.93
2017-08-02T05:59:06.564Z,15.37
2017-08-02T06:00:06.561Z,15.2
2017-08-02T06:01:06.549Z,15.16
2017-08-02T06:02:06.242Z,15.49
2017-08-02T06:03:06.230Z,15.95
2017-08-02T06:04:06.545Z,15.98
2017-08-02T06:05:06.528Z,15.91
2017-08-02T06:06:06.522Z,15.44
2017-08-02T06:07:06.530Z,15.16
2017-08-02T06:08:06.518Z,14.95
2017-08-02T06:09:06.518Z,15.2
2017-08-02T06:10:06.509Z,15.88
2017-08-02T06:11:06.504Z,15.98
2017-08-02T06:12:06.503Z,15.95
2017-08-02T06:13:06.491Z,15.78
2017-08-02T06:14:06.483Z,16.01
2017-08-02T06:15:07.457Z,16.17
2017-08-02T06:16:07.303Z,16.55
2017-08-02T06:17:06.470Z,16.62
2017-08-02T06:18:06.466Z,16.98
2017-08-02T06:19:06.454Z,16.95
2017-08-02T06:20:06.456Z,16.88
2017-08-02T06:21:06.452Z,17.28
2017-08-02T06:22:06.448Z,17.35
2017-08-02T06:23:06.441Z,17.43
2017-08-02T06:24:06.444Z,17.7
2017-08-02T06:25:06.440Z,18.05
2017-08-02T06:26:06.134Z,18.36
2017-08-02T06:27:06.454Z,18.38
2017-08-02T06:28:06.417Z,18.23
2017-08-02T06:29:06.424Z,18.56
2017-08-02T06:30:06.418Z,18.91
2017-08-02T06:31:06.406Z,18.54
2017-08-02T06:32:06.400Z,17.02
2017-08-02T06:33:06.399Z,16.96
2017-08-02T06:34:06.401Z,15.96
2017-08-02T06:35:06.391Z,16.04
2017-08-02T06:36:06.383Z,15.67
2017-08-02T06:37:06.382Z,15.67
2017-08-02T06:38:06.379Z,15.8
2017-08-02T06:39:06.378Z,15.73
2017-08-02T06:40:05.762Z,15.31
2017-08-02T06:41:06.060Z,15.23
2017-08-02T06:42:06.368Z,15.71
2017-08-02T06:43:06.367Z,16.18
2017-08-02T06:44:06.354Z,17.17
2017-08-02T06:45:06.363Z,17.99
2017-08-02T06:46:06.353Z,18.25
2017-08-02T06:47:06.331Z,18.02
2017-08-02T06:48:06.332Z,18.25
2017-08-02T06:49:06.325Z,17.35
2017-08-02T06:50:06.320Z,17.74
2017-08-02T06:51:06.321Z,17.91
2017-08-02T06:52:06.320Z,18.1
2017-08-02T06:53:06.310Z,18.32
2017-08-02T06:54:06.345Z,18.07
2017-08-02T06:55:06.309Z,17.3
2017-08-02T06:56:06.303Z,17.38
2017-08-02T06:57:06.012Z,17.25
2017-08-02T06:58:05.987Z,17.38
2017-08-02T06:59:06.291Z,17.21
2017-08-02T07:00:06.282Z,17.15
2017-08-02T07:01:06.275Z,17.28
2017-08-02T07:02:06.271Z,16.91
2017-08-02T07:03:06.259Z,17.09
2017-08-02T07:04:06.265Z,17.21
2017-08-02T07:05:06.257Z,17.33
2017-08-02T07:06:06.263Z,17.39
2017-08-02T07:07:05.952Z,17.02
2017-08-02T07:08:06.241Z,16.06
2017-08-02T07:09:05.946Z,15.58
2017-08-02T07:10:05.942Z,15.77
2017-08-02T07:11:06.243Z,16.34
2017-08-02T07:12:05.949Z,16.91
2017-08-02T07:13:06.231Z,17.03
2017-08-02T07:14:06.237Z,16.95
2017-08-02T07:15:05.925Z,17.54
2017-08-02T07:16:05.910Z,18.21
2017-08-02T07:17:06.210Z,18.69
2017-08-02T07:18:06.205Z,19.06
2017-08-02T07:19:05.916Z,19.24
2017-08-02T07:20:06.198Z,19.45
2017-08-02T07:21:06.196Z,19.79
2017-08-02T07:22:06.204Z,19.89
2017-08-02T07:23:06.208Z,19.98
2017-08-02T07:24:06.196Z,19.58
2017-08-02T07:25:06.183Z,19.17
2017-08-02T07:26:06.186Z,18.31
2017-08-02T07:27:06.207Z,18.02
2017-08-02T07:28:06.375Z,17.74
2017-08-02T07:29:06.180Z,16.91
2017-08-02T07:30:06.169Z,16.1
2017-08-02T07:31:06.169Z,16.27
2017-08-02T07:32:06.169Z,16.6
2017-08-02T07:33:06.362Z,16.9
2017-08-02T07:34:20.057Z,16.22
2017-08-02T07:35:19.789Z,15.93
2017-08-02T07:36:06.152Z,16.04
2017-08-02T07:37:06.153Z,15.98
2017-08-02T07:38:06.157Z,16.62
2017-08-02T07:39:06.140Z,17.06
2017-08-02T07:40:06.352Z,17.83
2017-08-02T07:41:06.138Z,18.23
2017-08-02T07:42:06.126Z,18.72
2017-08-02T07:43:06.127Z,18.82
2017-08-02T07:44:05.825Z,19.15
2017-08-02T07:45:06.114Z,18.9
2017-08-02T07:46:06.110Z,19.07
2017-08-02T07:47:06.098Z,19.09
2017-08-02T07:48:05.804Z,19.32
2017-08-02T07:49:06.101Z,19.09
2017-08-02T07:50:06.093Z,18.94
2017-08-02T07:51:06.095Z,18.6
2017-08-02T07:52:05.796Z,17.66
2017-08-02T07:53:06.094Z,16.9
2017-08-02T07:54:06.086Z,16.96
2017-08-02T07:55:06.094Z,17.47
2017-08-02T07:56:06.082Z,17.89
2017-08-02T07:57:06.078Z,18.62
2017-08-02T07:58:05.767Z,18.6
2017-08-02T07:59:06.368Z,17.95
2017-08-02T08:00:05.768Z,17.94
2017-08-02T08:01:06.072Z,18.34
2017-08-02T08:02:05.751Z,18.66
2017-08-02T08:03:06.052Z,19.15
2017-08-02T08:04:05.644Z,18.57
2017-08-02T08:05:06.049Z,18.69
2017-08-02T08:06:05.737Z,18.82
2017-08-02T08:07:06.049Z,19.28
2017-08-02T08:08:06.036Z,19.12
2017-08-02T08:09:06.042Z,18.79
2017-08-02T08:10:06.024Z,17.66
2017-08-02T08:11:06.041Z,17.14
2017-08-02T08:12:05.411Z,16.8
2017-08-02T08:13:06.016Z,16.62
2017-08-02T08:14:05.927Z,16.55
2017-08-02T08:15:19.395Z,16.6
2017-08-02T08:16:19.915Z,16.99
2017-08-02T08:17:06.006Z,17.58
2017-08-02T08:18:06.013Z,18.59
2017-08-02T08:19:06.008Z,19.1
2017-08-02T08:20:06.008Z,19.62
2017-08-02T08:21:06.002Z,19.52
2017-08-02T08:22:05.683Z,19.31
2017-08-02T08:23:05.991Z,19.39
2017-08-02T08:24:05.680Z,19.52
2017-08-02T08:25:06.182Z,19.5
2017-08-02T08:26:05.975Z,19.28
2017-08-02T08:27:05.975Z,19.06
2017-08-02T08:28:05.968Z,18.94
2017-08-02T08:29:05.977Z,18.94
2017-08-02T08:30:05.961Z,19.78
2017-08-02T08:31:05.957Z,20.13
2017-08-02T08:32:05.964Z,20.17
2017-08-02T08:33:05.959Z,19.95
2017-08-02T08:34:05.649Z,19.72
2017-08-02T08:35:05.342Z,19.65
2017-08-02T08:36:05.954Z,20.2
2017-08-02T08:37:05.949Z,20.3
2017-08-02T08:38:05.934Z,21.11
2017-08-02T08:39:05.629Z,21.13
2017-08-02T08:40:05.938Z,21.49
2017-08-02T08:41:05.938Z,21.12
2017-08-02T08:42:05.324Z,21.15
2017-08-02T08:43:05.928Z,21.21
2017-08-02T08:44:05.932Z,21.66
2017-08-02T08:45:05.615Z,21.9
2017-08-02T08:46:05.921Z,21.12
2017-08-02T08:47:05.912Z,20.27
2017-08-02T08:48:05.913Z,19.5
2017-08-02T08:49:05.911Z,19.16
2017-08-02T08:50:06.112Z,18.9
2017-08-02T08:51:05.913Z,18.46
2017-08-02T08:52:05.903Z,18.21
2017-08-02T08:53:05.906Z,19.01
2017-08-02T08:54:05.924Z,19.8
2017-08-02T08:55:05.905Z,20.22
2017-08-02T08:56:06.116Z,20.44
2017-08-02T08:57:06.112Z,20.66
2017-08-02T08:58:05.892Z,20.33
2017-08-02T08:59:05.887Z,20.2
2017-08-02T09:00:05.884Z,20.22
2017-08-02T09:01:05.874Z,20.27
2017-08-02T09:02:05.879Z,20.56
2017-08-02T09:03:05.888Z,20.64
2017-08-02T09:04:05.887Z,21
2017-08-02T09:05:05.864Z,21.36
2017-08-02T09:06:05.875Z,21.64
2017-08-02T09:07:05.866Z,21.36
2017-08-02T09:08:05.888Z,20.98
2017-08-02T09:09:05.861Z,21.12
2017-08-02T09:10:05.863Z,20.97
2017-08-02T09:11:05.879Z,20.71
2017-08-02T09:12:05.851Z,20.78
2017-08-02T09:13:05.556Z,20.81
2017-08-02T09:14:05.844Z,21.01
2017-08-02T09:15:05.850Z,21.28
2017-08-02T09:16:05.841Z,21.56
2017-08-02T09:17:05.853Z,21.64
2017-08-02T09:18:05.850Z,22.01
2017-08-02T09:19:05.546Z,22.44
2017-08-02T09:20:05.542Z,22.82
2017-08-02T09:21:05.834Z,22.75
2017-08-02T09:22:05.846Z,22.02
2017-08-02T09:23:05.841Z,21.24
2017-08-02T09:24:05.836Z,20.5
2017-08-02T09:25:05.834Z,20.12
2017-08-02T09:26:05.831Z,19.67
2017-08-02T09:27:05.836Z,19.89
2017-08-02T09:28:05.831Z,19.82
2017-08-02T09:29:05.518Z,19.21
2017-08-02T09:30:05.822Z,19.2
2017-08-02T09:31:05.825Z,19.32
2017-08-02T09:32:06.028Z,19.76
2017-08-02T09:33:05.812Z,19.98
2017-08-02T09:34:05.195Z,20.04
2017-08-02T09:35:05.816Z,19.65
2017-08-02T09:36:05.799Z,19.53
2017-08-02T09:37:05.499Z,19.25
2017-08-02T09:38:19.442Z,19.49
2017-08-02T09:39:05.792Z,19.95
2017-08-02T09:40:05.793Z,20.78
2017-08-02T09:41:05.779Z,21.09
2017-08-02T09:42:05.500Z,20.58
2017-08-02T09:43:05.982Z,19.94
2017-08-02T09:44:05.473Z,19.79
2017-08-02T09:45:05.771Z,19.8
2017-08-02T09:46:05.473Z,20.15
2017-08-02T09:47:05.766Z,19.49
2017-08-02T09:48:05.759Z,19.32
2017-08-02T09:49:05.776Z,19.4
2017-08-02T09:50:05.451Z,19.21
2017-08-02T09:51:05.765Z,18.76
2017-08-02T09:52:05.462Z,19.01
2017-08-02T09:53:05.755Z,19.31
2017-08-02T09:54:05.461Z,19.62
2017-08-02T09:55:05.739Z,20.02
2017-08-02T09:56:05.442Z,20.19
2017-08-02T09:57:05.728Z,20.31
2017-08-02T09:58:05.418Z,21.08
2017-08-02T09:59:05.728Z,21.3
2017-08-02T10:00:05.726Z,21.45
2017-08-02T10:01:05.428Z,21.36
2017-08-02T10:02:05.721Z,21.86
2017-08-02T10:03:05.409Z,21.96
2017-08-02T10:04:05.410Z,21.96
2017-08-02T10:05:05.715Z,21.96
2017-08-02T10:06:05.398Z,21.73
2017-08-02T10:07:05.732Z,21.19
2017-08-02T10:08:05.408Z,21.22
2017-08-02T10:09:05.395Z,20.75
2017-08-02T10:10:05.697Z,20.07
2017-08-02T10:11:05.693Z,20.33
2017-08-02T10:13:05.697Z,20.15
2017-08-02T10:14:05.399Z,19.82
2017-08-02T10:15:05.384Z,19.67
2017-08-02T10:16:05.684Z,19.3
2017-08-02T10:17:05.373Z,18.86
2017-08-02T10:18:05.880Z,18.46
2017-08-02T10:19:05.381Z,18.1
2017-08-02T10:20:05.671Z,18.09
2017-08-02T10:21:05.671Z,18.02
2017-08-02T10:22:05.670Z,17.76
2017-08-02T10:23:05.360Z,17.36
2017-08-02T10:24:05.661Z,17.21
2017-08-02T10:25:05.662Z,17.09
2017-08-02T10:26:05.657Z,16.9
2017-08-02T10:27:05.659Z,16.91
2017-08-02T10:28:05.653Z,16.95
2017-08-02T10:29:05.650Z,16.96
2017-08-02T10:30:05.637Z,16.54
2017-08-02T10:31:05.635Z,16.29
2017-08-02T10:32:05.647Z,16.1
2017-08-02T10:33:05.628Z,15.95
2017-08-02T10:34:05.632Z,15.91
2017-08-02T10:35:05.310Z,15.92
2017-08-02T10:36:05.308Z,16.06
2017-08-02T10:37:05.616Z,16.1
2017-08-02T10:38:05.605Z,16.1
2017-08-02T10:39:05.612Z,16.11
2017-08-02T10:40:05.598Z,16.07
2017-08-02T10:41:05.612Z,16.13
2017-08-02T10:42:05.288Z,16.08
2017-08-02T10:43:04.977Z,16.07
2017-08-02T10:44:05.277Z,15.88
2017-08-02T10:45:05.293Z,15.8
2017-08-02T10:46:05.575Z,15.81
2017-08-02T10:47:05.273Z,15.89
2017-08-02T10:48:05.264Z,15.7
2017-08-02T10:49:05.557Z,15.53
2017-08-02T10:50:05.567Z,15.46
2017-08-02T10:51:05.241Z,15.37
2017-08-02T10:52:05.548Z,14.53
2017-08-02T10:53:04.940Z,13.63
2017-08-02T10:54:05.541Z,13.51
2017-08-02T10:55:05.233Z,13.62
2017-08-02T10:56:05.539Z,13.43
2017-08-02T10:57:05.534Z,12.94
2017-08-02T10:58:05.523Z,12.74
2017-08-02T10:59:05.522Z,12.74
2017-08-02T11:00:05.209Z,12.94
2017-08-02T11:01:05.204Z,13.24
2017-08-02T11:02:05.191Z,13.53
2017-08-02T11:03:05.191Z,13.76
2017-08-02T11:04:05.489Z,14.09
2017-08-02T11:05:05.491Z,14.12
2017-08-02T11:06:05.179Z,14.41
2017-08-02T11:07:05.173Z,14.35
2017-08-02T11:08:05.174Z,14.44
2017-08-02T11:09:05.156Z,14.66
2017-08-02T11:10:05.157Z,15.34
2017-08-02T11:11:05.449Z,16.13
2017-08-02T11:12:05.449Z,16.82
2017-08-02T11:13:05.441Z,17.65
2017-08-02T11:14:05.440Z,18.17
2017-08-02T11:15:05.454Z,18.56
2017-08-02T11:16:05.428Z,18.68
2017-08-02T11:17:05.426Z,19.34
2017-08-02T11:18:05.116Z,20.27
2017-08-02T11:19:05.124Z,19.52
2017-08-02T11:20:05.405Z,18.56
2017-08-02T11:21:05.405Z,18.41
2017-08-02T11:22:05.101Z,18.23
2017-08-02T11:23:05.409Z,17.6
2017-08-02T11:24:05.096Z,17.4
2017-08-02T11:25:05.385Z,16.77
2017-08-02T11:26:05.389Z,16.69
2017-08-02T11:27:05.396Z,15.96
2017-08-02T11:28:05.372Z,14.78
2017-08-02T11:29:05.396Z,14.16
2017-08-02T11:30:05.075Z,14.23
2017-08-02T11:31:05.373Z,13.53
2017-08-02T11:32:05.362Z,13.73
2017-08-02T11:33:05.359Z,13.73
2017-08-02T11:34:05.349Z,13.62
2017-08-02T11:35:05.340Z,14.29
2017-08-02T11:36:05.338Z,14.64
2017-08-02T11:37:05.041Z,14.83
2017-08-02T11:38:05.339Z,15.05
2017-08-02T11:39:05.333Z,15.01
2017-08-02T11:40:05.326Z,15.34
2017-08-02T11:41:05.318Z,15.95
2017-08-02T11:42:05.301Z,16.18
2017-08-02T11:43:05.305Z,16.18
2017-08-02T11:44:05.296Z,16.98
2017-08-02T11:45:05.298Z,17.53
2017-08-02T11:46:04.987Z,17.66
2017-08-02T11:47:05.279Z,17.91
2017-08-02T11:48:05.280Z,17.74
2017-08-02T11:49:05.286Z,17.2
2017-08-02T11:50:04.973Z,17.62
2017-08-02T11:51:05.267Z,18.09
2017-08-02T11:52:05.268Z,18.56
2017-08-02T11:53:05.259Z,19.07
2017-08-02T11:54:04.655Z,19.86
2017-08-02T11:55:05.263Z,19.76
2017-08-02T11:56:05.245Z,19.82
2017-08-02T11:57:05.246Z,19.72
2017-08-02T11:58:04.941Z,19.53
2017-08-02T11:59:05.225Z,19.61
2017-08-02T12:00:04.946Z,20.22
2017-08-02T12:01:05.241Z,20.57
2017-08-02T12:02:05.229Z,20.25
2017-08-02T12:03:05.216Z,20.27
2017-08-02T12:04:05.214Z,20.05
2017-08-02T12:05:04.914Z,19.98
2017-08-02T12:06:05.218Z,20.17
2017-08-02T12:07:04.906Z,20.01
2017-08-02T12:08:05.200Z,19.24
2017-08-02T12:09:04.899Z,19.1
2017-08-02T12:10:05.211Z,18.31
2017-08-02T12:11:05.188Z,17.89
2017-08-02T12:12:05.194Z,17.81
2017-08-02T12:13:05.201Z,17.18
2017-08-02T12:14:05.185Z,17.55
2017-08-02T12:15:04.872Z,18.16
2017-08-02T12:16:04.881Z,17.65
2017-08-02T12:17:05.166Z,17.91
2017-08-02T12:18:04.868Z,18.02
2017-08-02T12:19:05.175Z,17.87
2017-08-02T12:20:04.867Z,17.27
2017-08-02T12:21:05.162Z,17.4
2017-08-02T12:22:05.156Z,17.68
2017-08-02T12:23:05.157Z,18.02
2017-08-02T12:24:04.851Z,18.49
2017-08-02T12:25:04.847Z,18.78
2017-08-02T12:26:05.146Z,18.38
2017-08-02T12:27:04.845Z,17.76
2017-08-02T12:28:04.828Z,17.76
2017-08-02T12:29:05.127Z,17.79
2017-08-02T12:30:04.836Z,17.62
2017-08-02T12:31:04.819Z,17.3
2017-08-02T12:32:04.515Z,17.4
2017-08-02T12:33:05.122Z,16.77
2017-08-02T12:34:05.125Z,17.32
2017-08-02T12:35:05.106Z,17.39
2017-08-02T12:36:04.804Z,16.78
2017-08-02T12:37:05.100Z,16.92
2017-08-02T12:38:05.105Z,17.28
2017-08-02T12:39:05.103Z,17.47
2017-08-02T12:40:05.094Z,17.43
2017-08-02T12:41:05.078Z,17.49
2017-08-02T12:42:05.097Z,17.24
2017-08-02T12:43:05.080Z,17.21
2017-08-02T12:44:05.074Z,17.21
2017-08-02T12:45:04.760Z,17.77
2017-08-02T12:46:05.067Z,17.76
2017-08-02T12:47:05.062Z,17.89
2017-08-02T12:48:05.067Z,17.7
2017-08-02T12:49:05.059Z,17.05
2017-08-02T12:50:05.046Z,17.49
2017-08-02T12:51:05.044Z,17.49
2017-08-02T12:52:04.732Z,16.87
2017-08-02T12:53:05.026Z,16.81
2017-08-02T12:54:05.041Z,16.63
2017-08-02T12:55:04.718Z,16.9
2017-08-02T12:56:04.730Z,17.42